createdAt,value
2019-05-26T00:01:35.000Z,6.2
2019-05-26T00:04:59.000Z,5.7
2019-05-26T00:08:22.000Z,6
2019-05-26T00:11:45.000Z,6.2
2019-05-26T00:15:11.000Z,5.9
2019-05-26T00:18:36.000Z,5.8
2019-05-26T00:22:01.000Z,5.9
2019-05-26T00:25:29.000Z,6.2
2019-05-26T00:28:55.000Z,6.3
2019-05-26T00:32:19.000Z,6
2019-05-26T00:35:49.000Z,6.3
2019-05-26T00:39:12.000Z,6.4
2019-05-26T00:42:40.000Z,6.4
2019-05-26T00:46:07.000Z,6.3
2019-05-26T00:49:33.000Z,7
2019-05-26T00:52:58.000Z,6.7
2019-05-26T00:56:27.000Z,6
2019-05-26T00:59:55.000Z,6.3
2019-05-26T01:05:08.000Z,6.7
2019-05-26T01:08:31.000Z,6.3
2019-05-26T01:11:54.000Z,6.4
2019-05-26T01:15:17.000Z,6.4
2019-05-26T01:18:40.000Z,6.5
2019-05-26T01:22:03.000Z,6.2
2019-05-26T01:25:27.000Z,6.5
2019-05-26T01:28:51.000Z,6.6
2019-05-26T01:32:16.000Z,5.8
2019-05-26T01:35:38.000Z,6.3
2019-05-26T01:39:01.000Z,6.6
2019-05-26T01:42:26.000Z,6.3
2019-05-26T01:45:51.000Z,6.9
2019-05-26T01:49:17.000Z,6.8
2019-05-26T01:52:41.000Z,6.8
2019-05-26T01:56:09.000Z,6.6
2019-05-26T01:59:32.000Z,6.9
2019-05-26T02:02:57.000Z,6.7
2019-05-26T02:06:21.000Z,6.8
2019-05-26T02:09:44.000Z,6.5
2019-05-26T02:13:09.000Z,6.6
2019-05-26T02:16:33.000Z,6.7
2019-05-26T02:19:58.000Z,6.8
2019-05-26T02:23:25.000Z,6.8
2019-05-26T02:26:49.000Z,6.6
2019-05-26T02:30:14.000Z,6.7
2019-05-26T02:33:38.000Z,6.8
2019-05-26T02:37:06.000Z,6.6
2019-05-26T02:40:56.000Z,6.6
2019-05-26T02:44:23.000Z,6.8
2019-05-26T02:47:49.000Z,6.6
2019-05-26T02:51:17.000Z,6.5
2019-05-26T02:54:42.000Z,6.8
2019-05-26T02:58:06.000Z,6.6
2019-05-26T03:01:31.000Z,6.3
2019-05-26T03:05:20.000Z,6.6
2019-05-26T03:08:45.000Z,6.8
2019-05-26T03:12:15.000Z,7.2
2019-05-26T03:15:41.000Z,7.4
2019-05-26T03:19:08.000Z,7.1
2019-05-26T03:22:35.000Z,6.4
2019-05-26T03:26:06.000Z,7
2019-05-26T03:31:43.000Z,7
2019-05-26T03:35:15.000Z,6.8
2019-05-26T03:38:39.000Z,7.1
2019-05-26T03:42:03.000Z,6.6
2019-05-26T03:45:26.000Z,7.2
2019-05-26T03:48:52.000Z,6.3
2019-05-26T03:52:14.000Z,7
2019-05-26T03:55:39.000Z,6.3
2019-05-26T03:59:02.000Z,6.3
2019-05-26T04:02:25.000Z,6.8
2019-05-26T04:05:48.000Z,6.8
2019-05-26T04:09:13.000Z,6.7
2019-05-26T04:12:38.000Z,6.9
2019-05-26T04:16:03.000Z,6.9
2019-05-26T04:19:28.000Z,6.8
2019-05-26T04:22:52.000Z,7.6
2019-05-26T04:26:15.000Z,6.8
2019-05-26T04:29:38.000Z,6.9
2019-05-26T04:33:03.000Z,7.1
2019-05-26T04:36:29.000Z,7.3
2019-05-26T04:39:55.000Z,7.8
2019-05-26T04:43:45.000Z,8.6
2019-05-26T04:47:09.000Z,8
2019-05-26T04:50:32.000Z,6.2
2019-05-26T04:53:57.000Z,8.6
2019-05-26T04:57:22.000Z,8.5
2019-05-26T05:00:48.000Z,6.3
2019-05-26T05:04:14.000Z,9.2
2019-05-26T05:07:41.000Z,9.4
2019-05-26T05:11:05.000Z,9.4
2019-05-26T05:14:30.000Z,8
2019-05-26T05:17:57.000Z,8.6
2019-05-26T05:21:22.000Z,9.6
2019-05-26T05:24:49.000Z,7.5
2019-05-26T05:28:15.000Z,10.1
2019-05-26T05:31:42.000Z,9.9
2019-05-26T05:35:05.000Z,10.2
2019-05-26T05:38:31.000Z,10.1
2019-05-26T05:41:57.000Z,10.9
2019-05-26T05:45:22.000Z,11.3
2019-05-26T05:48:49.000Z,9.7
2019-05-26T05:52:20.000Z,7.7
2019-05-26T05:55:44.000Z,9.5
2019-05-26T05:59:09.000Z,7.5
2019-05-26T06:02:41.000Z,6.6
2019-05-26T06:06:12.000Z,7.4
2019-05-26T06:09:49.000Z,6.8
2019-05-26T06:13:19.000Z,6.2
2019-05-26T06:16:50.000Z,6.7
2019-05-26T06:20:19.000Z,6.5
2019-05-26T06:23:51.000Z,6.1
2019-05-26T06:27:26.000Z,7.6
2019-05-26T06:30:56.000Z,5.9
2019-05-26T06:34:26.000Z,8.1
2019-05-26T06:37:56.000Z,6.8
2019-05-26T06:41:28.000Z,7.6
2019-05-26T06:44:58.000Z,6
2019-05-26T06:48:32.000Z,7.4
2019-05-26T06:52:07.000Z,7.3
2019-05-26T06:55:41.000Z,8.6
2019-05-26T06:59:14.000Z,7.5
2019-05-26T07:02:49.000Z,7.5
2019-05-26T07:06:25.000Z,9.5
2019-05-26T07:09:57.000Z,8
2019-05-26T07:13:51.000Z,8.3
2019-05-26T07:17:23.000Z,8.6
2019-05-26T07:21:13.000Z,8.9
2019-05-26T07:24:57.000Z,12.6
2019-05-26T07:28:34.000Z,13
2019-05-26T07:32:19.000Z,12.5
2019-05-26T07:36:00.000Z,11.8
2019-05-26T07:39:33.000Z,12.5
2019-05-26T07:43:14.000Z,12.1
2019-05-26T07:46:47.000Z,14
2019-05-26T07:50:25.000Z,14.2
2019-05-26T07:54:05.000Z,14
2019-05-26T07:57:53.000Z,12.7
2019-05-26T08:03:55.000Z,13.6
2019-05-26T08:09:59.000Z,13.7
2019-05-26T08:17:10.000Z,10
2019-05-26T08:20:34.000Z,9.3
2019-05-26T08:23:57.000Z,8.9
2019-05-26T08:27:20.000Z,9.6
2019-05-26T08:30:42.000Z,9
2019-05-26T08:34:09.000Z,9.3
2019-05-26T08:37:32.000Z,9.6
2019-05-26T08:40:55.000Z,9.5
2019-05-26T08:44:35.000Z,9.3
2019-05-26T08:47:58.000Z,10
2019-05-26T08:51:21.000Z,8.3
2019-05-26T08:54:44.000Z,7.5
2019-05-26T08:58:07.000Z,7.7
2019-05-26T09:01:30.000Z,6.5
2019-05-26T09:04:54.000Z,8.1
2019-05-26T09:08:17.000Z,7.7
2019-05-26T09:11:40.000Z,7.3
2019-05-26T09:15:05.000Z,6.2
2019-05-26T09:18:33.000Z,6.5
2019-05-26T09:21:56.000Z,6.3
2019-05-26T09:25:20.000Z,6.9
2019-05-26T09:28:46.000Z,7.2
2019-05-26T09:32:09.000Z,7.1
2019-05-26T09:35:35.000Z,6.7
2019-05-26T09:39:00.000Z,6.2
2019-05-26T09:42:25.000Z,7.5
2019-05-26T09:45:49.000Z,5.9
2019-05-26T09:49:14.000Z,5.5
2019-05-26T09:52:40.000Z,5.7
2019-05-26T09:56:08.000Z,6
2019-05-26T09:59:34.000Z,4.8
2019-05-26T10:03:01.000Z,5.7
2019-05-26T10:06:28.000Z,7.1
2019-05-26T10:09:55.000Z,6.5
2019-05-26T10:13:23.000Z,6.2
2019-05-26T10:16:49.000Z,7.4
2019-05-26T10:20:14.000Z,5.5
2019-05-26T10:23:41.000Z,6.1
2019-05-26T10:27:14.000Z,6
2019-05-26T10:30:44.000Z,6.2
2019-05-26T10:34:11.000Z,7
2019-05-26T10:37:39.000Z,5.9
2019-05-26T10:41:13.000Z,5.1
2019-05-26T10:44:42.000Z,6
2019-05-26T10:48:14.000Z,6.5
2019-05-26T10:51:42.000Z,6.7
2019-05-26T10:55:11.000Z,6.3
2019-05-26T10:58:43.000Z,6.2
2019-05-26T11:02:18.000Z,5.9
2019-05-26T11:05:43.000Z,6.3
2019-05-26T11:09:14.000Z,6.1
2019-05-26T11:12:50.000Z,5.2
2019-05-26T11:16:19.000Z,4.8
2019-05-26T11:19:47.000Z,5.9
2019-05-26T11:23:15.000Z,5.4
2019-05-26T11:26:47.000Z,4.3
2019-05-26T11:30:35.000Z,4.9
2019-05-26T11:34:09.000Z,4.4
2019-05-26T11:37:47.000Z,4.8
2019-05-26T11:41:20.000Z,4.4
2019-05-26T11:45:15.000Z,4.7
2019-05-26T11:48:52.000Z,4.6
2019-05-26T11:52:27.000Z,5.4
2019-05-26T11:56:04.000Z,5
2019-05-26T11:59:45.000Z,4.2
2019-05-26T12:03:21.000Z,4.5
2019-05-26T12:07:02.000Z,4.6
2019-05-26T12:10:40.000Z,4
2019-05-26T12:14:21.000Z,3.9
2019-05-26T12:18:09.000Z,4.6
2019-05-26T12:21:53.000Z,5
2019-05-26T12:25:33.000Z,4.2
2019-05-26T12:29:08.000Z,3.9
2019-05-26T12:32:47.000Z,4.1
2019-05-26T12:36:24.000Z,4
2019-05-26T12:40:03.000Z,3.4
2019-05-26T12:43:46.000Z,3.7
2019-05-26T12:47:32.000Z,3.3
2019-05-26T12:51:14.000Z,2.5
2019-05-26T12:54:57.000Z,3
2019-05-26T12:58:47.000Z,3.9
2019-05-26T13:02:29.000Z,3.7
2019-05-26T13:07:27.000Z,3.9
2019-05-26T13:10:51.000Z,3.5
2019-05-26T13:14:14.000Z,3
2019-05-26T13:17:38.000Z,2.7
2019-05-26T13:21:02.000Z,2.7
2019-05-26T13:24:25.000Z,3
2019-05-26T13:27:50.000Z,2.7
2019-05-26T13:31:13.000Z,3.2
2019-05-26T13:34:36.000Z,3.1
2019-05-26T13:38:00.000Z,2.7
2019-05-26T13:41:24.000Z,3
2019-05-26T13:44:49.000Z,2.8
2019-05-26T13:48:12.000Z,3.3
2019-05-26T13:51:38.000Z,2.9
2019-05-26T13:55:03.000Z,3.1
2019-05-26T13:58:25.000Z,3.1
2019-05-26T14:01:49.000Z,3
2019-05-26T14:05:12.000Z,2.9
2019-05-26T14:08:35.000Z,3
2019-05-26T14:11:59.000Z,3.5
2019-05-26T14:15:22.000Z,3.1
2019-05-26T14:18:55.000Z,3.4
2019-05-26T14:22:18.000Z,3.1
2019-05-26T14:25:44.000Z,3
2019-05-26T14:29:10.000Z,3.2
2019-05-26T14:32:33.000Z,3
2019-05-26T14:35:57.000Z,2.7
2019-05-26T14:39:24.000Z,2.8
2019-05-26T14:42:48.000Z,2.8
2019-05-26T14:46:12.000Z,2.9
2019-05-26T14:49:41.000Z,2.6
2019-05-26T15:01:10.000Z,3
2019-05-26T15:04:33.000Z,3.1
2019-05-26T15:07:59.000Z,3
2019-05-26T15:11:22.000Z,2.8
2019-05-26T15:14:46.000Z,3
2019-05-26T15:18:10.000Z,2.5
2019-05-26T15:21:33.000Z,2.6
2019-05-26T15:24:55.000Z,2.3
2019-05-26T15:28:21.000Z,2.5
2019-05-26T15:31:45.000Z,2.4
2019-05-26T15:35:09.000Z,2.4
2019-05-26T15:38:32.000Z,2.2
2019-05-26T15:41:59.000Z,2.2
2019-05-26T15:45:27.000Z,2.1
2019-05-26T15:48:52.000Z,1.8
2019-05-26T15:52:17.000Z,2
2019-05-26T15:55:41.000Z,2
2019-05-26T15:59:04.000Z,1.7
2019-05-26T16:02:27.000Z,1.9
2019-05-26T16:05:51.000Z,1.8
2019-05-26T16:09:15.000Z,1.8
2019-05-26T16:12:39.000Z,1.9
2019-05-26T16:16:03.000Z,2.2
2019-05-26T16:19:26.000Z,1.8
2019-05-26T16:22:59.000Z,2.1
2019-05-26T16:26:26.000Z,2.2
2019-05-26T16:29:54.000Z,2
2019-05-26T16:33:21.000Z,2
2019-05-26T16:36:47.000Z,1.9
2019-05-26T16:40:14.000Z,2
2019-05-26T16:43:39.000Z,1.8
2019-05-26T16:47:06.000Z,1.7
2019-05-26T16:50:33.000Z,2
2019-05-26T16:53:58.000Z,1.9
2019-05-26T16:57:23.000Z,1.8
2019-05-26T17:00:52.000Z,2
2019-05-26T17:04:20.000Z,2.2
2019-05-26T17:08:06.000Z,1.8
2019-05-26T17:11:34.000Z,1.8
2019-05-26T17:14:59.000Z,1.7
2019-05-26T17:18:32.000Z,1.9
2019-05-26T17:21:55.000Z,1.9
2019-05-26T17:25:19.000Z,1.9
2019-05-26T17:28:47.000Z,1.9
2019-05-26T17:32:20.000Z,2.1
2019-05-26T17:35:51.000Z,2
2019-05-26T17:39:16.000Z,2
2019-05-26T17:42:54.000Z,2.4
2019-05-26T17:46:26.000Z,2.1
2019-05-26T17:49:51.000Z,2.1
2019-05-26T17:53:22.000Z,2.4
2019-05-26T17:56:50.000Z,2.4
2019-05-26T18:00:21.000Z,2.4
2019-05-26T18:03:56.000Z,2.2
2019-05-26T18:07:27.000Z,2.3
2019-05-26T18:11:00.000Z,2.2
2019-05-26T18:14:35.000Z,2.1
2019-05-26T18:21:50.000Z,2.1
2019-05-26T18:25:13.000Z,2.3
2019-05-26T18:28:36.000Z,2.3
2019-05-26T18:31:59.000Z,2.4
2019-05-26T18:35:22.000Z,2.1
2019-05-26T18:38:45.000Z,2.5
2019-05-26T18:42:08.000Z,2.4
2019-05-26T18:45:31.000Z,2.2
2019-05-26T18:48:54.000Z,2.5
2019-05-26T18:52:17.000Z,2.6
2019-05-26T18:55:40.000Z,2.6
2019-05-26T18:59:05.000Z,2.6
2019-05-26T19:02:28.000Z,2.4
2019-05-26T19:05:52.000Z,2.5
2019-05-26T19:09:19.000Z,2.4
2019-05-26T19:12:42.000Z,2.4
2019-05-26T19:16:05.000Z,2.4
2019-05-26T19:19:29.000Z,2.6
2019-05-26T19:22:53.000Z,2.5
2019-05-26T19:26:16.000Z,2.7
2019-05-26T19:29:39.000Z,2.5
2019-05-26T19:33:03.000Z,2.8
2019-05-26T19:36:27.000Z,3
2019-05-26T19:39:53.000Z,2.6
2019-05-26T19:43:18.000Z,2.7
2019-05-26T19:46:44.000Z,2.7
2019-05-26T19:50:11.000Z,2.7
2019-05-26T19:53:36.000Z,2.7
2019-05-26T19:57:06.000Z,2.6
2019-05-26T20:00:32.000Z,2.5
2019-05-26T20:04:14.000Z,3
2019-05-26T20:07:40.000Z,2.9
2019-05-26T20:11:09.000Z,2.8
2019-05-26T20:14:35.000Z,2.7
2019-05-26T20:18:00.000Z,2.7
2019-05-26T20:21:26.000Z,3.1
2019-05-26T20:24:51.000Z,2.9
2019-05-26T20:28:16.000Z,2.7
2019-05-26T20:31:47.000Z,2.9
2019-05-26T20:35:15.000Z,2.6
2019-05-26T20:38:42.000Z,3
2019-05-26T20:42:10.000Z,2.8
2019-05-26T20:45:36.000Z,2.4
2019-05-26T20:49:08.000Z,2.8
2019-05-26T20:52:37.000Z,2.8
2019-05-26T20:56:12.000Z,2.7
2019-05-26T20:59:39.000Z,2.6
2019-05-26T21:03:10.000Z,2.9
2019-05-26T21:06:36.000Z,2.5
2019-05-26T21:10:07.000Z,2.7
2019-05-26T21:13:34.000Z,2.6
2019-05-26T21:17:04.000Z,2.8
2019-05-26T21:20:31.000Z,2.5
2019-05-26T21:24:02.000Z,2.6
2019-05-26T21:27:29.000Z,2.8
2019-05-26T21:30:59.000Z,2.8
2019-05-26T21:34:32.000Z,2.6
2019-05-26T21:38:09.000Z,2.4
2019-05-26T21:41:45.000Z,2.4
2019-05-26T21:45:19.000Z,2.3
2019-05-26T21:48:47.000Z,2.5
2019-05-26T21:52:23.000Z,2.6
2019-05-26T21:55:59.000Z,2.4
2019-05-26T21:59:37.000Z,2.8
2019-05-26T22:03:15.000Z,2.5
2019-05-26T22:06:56.000Z,2.3
2019-05-26T22:10:33.000Z,2.5
2019-05-26T22:14:09.000Z,2.4
2019-05-26T22:17:54.000Z,2.5
2019-05-26T22:21:35.000Z,2.4
2019-05-26T22:25:13.000Z,2.4
2019-05-26T22:28:55.000Z,2.5
2019-05-26T22:32:25.000Z,2.8
2019-05-26T22:36:01.000Z,2.8
2019-05-26T22:39:39.000Z,2.7
2019-05-26T22:43:16.000Z,2.3
2019-05-26T22:46:54.000Z,2.5
2019-05-26T22:50:35.000Z,2.6
2019-05-26T22:54:13.000Z,2.6
2019-05-26T22:57:58.000Z,2.5
2019-05-26T23:01:36.000Z,2.5
2019-05-26T23:05:21.000Z,2.5
2019-05-26T23:10:16.000Z,2.5
2019-05-26T23:13:39.000Z,2.5
2019-05-26T23:17:02.000Z,2.5
2019-05-26T23:20:24.000Z,2.5
2019-05-26T23:23:48.000Z,2.4
2019-05-26T23:27:11.000Z,2.3
2019-05-26T23:30:35.000Z,2.3
2019-05-26T23:33:58.000Z,2.7
2019-05-26T23:37:21.000Z,2.6
2019-05-26T23:40:44.000Z,2.7
2019-05-26T23:44:07.000Z,2.6
2019-05-26T23:47:31.000Z,2.5
2019-05-26T23:50:55.000Z,2.3
2019-05-26T23:54:19.000Z,2.6
2019-05-26T23:57:44.000Z,2.5
